Time;durP1;ratioP1;P1;durP2;ratioP2;P2;SDS_P1;SDS_P2;PMS_P1;PMS_P2;Temp;Humidity;BMP_temperature;BMP_pressure;BME280_temperature;BME280_humidity;BME280_pressure;Samples;Min_cycle;Max_cycle;Signal;HPM_P1;HPM_P2
2022/04/26 03:36:07;;;;;;;1.07;1.07;;;18.90;65.10;;;;;;5151031;27;43958;-71
2022/04/26 03:38:36;;;;;;;1.00;1.00;;;18.80;65.30;;;;;;5150060;27;44775;-70
2022/04/26 03:41:04;;;;;;;1.00;1.00;;;18.90;65.30;;;;;;5131543;27;44787;-71
2022/04/26 03:43:32;;;;;;;1.00;1.00;;;19.10;65.10;;;;;;5131095;27;44021;-70
2022/04/26 03:46:00;;;;;;;1.13;1.13;;;19.30;64.60;;;;;;5150640;27;43393;-70
2022/04/26 03:48:28;;;;;;;1.37;1.33;;;19.50;64.00;;;;;;5149650;27;43875;-71
2022/04/26 03:50:57;;;;;;;1.30;1.30;;;19.50;63.50;;;;;;5150199;27;44073;-70
2022/04/26 03:53:25;;;;;;;1.80;1.43;;;19.50;63.40;;;;;;5149321;27;43500;-70
2022/04/26 03:55:53;;;;;;;1.40;1.40;;;19.40;63.50;;;;;;5150402;27;43370;-70
2022/04/26 03:58:21;;;;;;;1.70;1.60;;;19.30;63.60;;;;;;5149842;27;44005;-70
2022/04/26 04:00:49;;;;;;;1.47;1.37;;;19.20;63.90;;;;;;5149945;27;44115;-70
2022/04/26 04:03:17;;;;;;;1.60;1.50;;;19.10;64.20;;;;;;5148958;27;43978;-70
2022/04/26 04:05:45;;;;;;;1.83;1.73;;;19.10;64.50;;;;;;5150490;27;43804;-69
2022/04/26 04:08:14;;;;;;;1.67;1.57;;;19.00;64.60;;;;;;5149477;27;44162;-70
2022/04/26 04:10:42;;;;;;;3.90;2.10;;;18.90;64.70;;;;;;5149496;27;43975;-70
2022/04/26 04:13:10;;;;;;;2.13;1.90;;;18.90;65.10;;;;;;5149516;27;43943;-69
2022/04/26 04:15:38;;;;;;;1.90;1.80;;;18.90;65.30;;;;;;5150032;27;44001;-70
2022/04/26 04:19:17;;;;;;;1.73;1.63;;;19.10;65.10;;;;;;5149303;27;43933;-70
2022/04/26 04:20:55;;;;;;;1.67;1.57;;;19.20;64.60;;;;;;5149318;27;44030;-70
2022/04/26 04:23:24;;;;;;;2.17;1.80;;;19.20;64.30;;;;;;5148367;27;44018;-69
2022/04/26 04:25:52;;;;;;;2.27;2.17;;;19.10;64.20;;;;;;5149590;27;44048;-70
2022/04/26 04:28:19;;;;;;;2.20;2.00;;;19.10;64.50;;;;;;5149211;27;44374;-70
2022/04/26 04:30:47;;;;;;;1.90;1.80;;;19.00;64.60;;;;;;5150054;27;43495;-69
2022/04/26 04:33:15;;;;;;;2.10;1.83;;;18.90;64.80;;;;;;5149097;27;44008;-71
2022/04/26 04:35:43;;;;;;;2.00;1.90;;;18.90;65.00;;;;;;5150154;27;43832;-69
2022/04/26 04:38:11;;;;;;;1.77;1.67;;;18.80;65.10;;;;;;5149647;27;43981;-70
2022/04/26 04:40:43;;;;;;;2.53;2.20;;;18.80;65.20;;;;;;5149635;27;43884;-70
2022/04/26 04:43:12;;;;;;;3.07;2.00;;;18.80;65.30;;;;;;5149669;27;43997;-70
2022/04/26 04:45:41;;;;;;;2.53;1.83;;;18.80;65.40;;;;;;5149999;27;43448;-70
2022/04/26 04:48:09;;;;;;;2.20;2.10;;;18.80;65.60;;;;;;5130426;27;45396;-69
2022/04/26 04:50:37;;;;;;;2.30;2.10;;;18.80;66.40;;;;;;5149560;27;43936;-70
2022/04/26 04:53:06;;;;;;;1.97;1.87;;;19.00;65.40;;;;;;5149554;27;44213;-70
2022/04/26 04:55:34;;;;;;;3.50;2.23;;;19.20;64.90;;;;;;5150054;27;43380;-70
2022/04/26 04:58:04;;;;;;;3.30;2.43;;;19.40;64.30;;;;;;5149389;27;43971;-70
2022/04/26 05:00:32;;;;;;;3.73;2.70;;;19.50;63.70;;;;;;5149944;27;44323;-69
2022/04/26 05:03:00;;;;;;;2.97;2.53;;;19.60;63.50;;;;;;5149829;27;44037;-70
2022/04/26 05:05:28;;;;;;;3.20;2.40;;;19.50;63.40;;;;;;5130673;27;43795;-71
2022/04/26 05:07:59;;;;;;;2.70;2.50;;;19.40;63.40;;;;;;5149656;27;44334;-69
2022/04/26 05:10:27;;;;;;;3.17;2.60;;;19.30;63.60;;;;;;5148852;27;43916;-70
2022/04/26 05:13:02;;;;;;;2.90;2.70;;;19.20;63.80;;;;;;5148741;27;44132;-69
2022/04/26 05:15:35;;;;;;;3.00;2.63;;;19.10;64.10;;;;;;5129780;27;44038;-70
2022/04/26 05:18:06;;;;;;;2.67;2.43;;;19.00;64.30;;;;;;5148747;27;44040;-71
2022/04/26 05:20:35;;;;;;;3.93;2.63;;;19.00;64.50;;;;;;5148733;27;43953;-70
2022/04/26 05:25:51;;;;;;;2.73;2.33;;;18.90;65.10;;;;;;5149114;27;43945;-70
2022/04/26 05:28:19;;;;;;;2.60;2.50;;;19.10;64.90;;;;;;5129192;27;45475;-70
2022/04/26 05:30:54;;;;;;;2.70;2.50;;;19.30;64.50;;;;;;5148405;27;43953;-70
2022/04/26 05:33:23;;;;;;;2.60;2.50;;;19.40;64.00;;;;;;5129227;27;44036;-70
2022/04/26 05:35:52;;;;;;;2.60;2.50;;;19.40;63.70;;;;;;5148398;27;43926;-70
2022/04/26 05:38:20;;;;;;;2.90;2.70;;;19.40;63.70;;;;;;5148413;27;43968;-70
2022/04/26 05:40:49;;;;;;;3.00;2.80;;;19.30;63.90;;;;;;5148380;27;43815;-70
2022/04/26 05:43:27;;;;;;;2.63;2.43;;;19.20;64.00;;;;;;5148115;27;43482;-70
2022/04/26 05:46:04;;;;;;;3.40;2.80;;;19.10;64.30;;;;;;5131259;27;44050;-70
2022/04/26 05:48:33;;;;;;;3.07;2.87;;;19.00;64.50;;;;;;5148193;27;44788;-70
2022/04/26 05:51:01;;;;;;;2.90;2.70;;;18.90;64.70;;;;;;5148458;27;44054;-70
2022/04/26 05:53:30;;;;;;;2.90;2.70;;;18.90;64.90;;;;;;5148476;27;43368;-70
2022/04/26 05:55:58;;;;;;;2.77;2.57;;;18.90;65.00;;;;;;5130064;27;44244;-69
2022/04/26 05:58:27;;;;;;;2.67;2.47;;;18.90;65.50;;;;;;5148439;27;43925;-70
2022/04/26 06:00:56;;;;;;;2.90;2.70;;;18.90;65.30;;;;;;5148373;27;43952;-70
2022/04/26 06:03:27;;;;;;;2.90;2.70;;;19.10;65.00;;;;;;5147850;27;44014;-70
2022/04/26 06:05:57;;;;;;;3.00;2.80;;;19.30;64.50;;;;;;5142498;27;43895;-70
2022/04/26 06:08:26;;;;;;;3.03;2.83;;;19.40;64.00;;;;;;5122302;27;45425;-70
2022/04/26 06:10:54;;;;;;;2.77;2.60;;;19.40;63.90;;;;;;5147924;27;43976;-70
2022/04/26 06:13:25;;;;;;;2.80;2.60;;;19.30;63.70;;;;;;5148148;27;43986;-70
2022/04/26 06:15:53;;;;;;;2.70;2.60;;;19.20;63.80;;;;;;5129734;27;44101;-70
2022/04/26 06:18:22;;;;;;;3.00;2.80;;;19.10;64.10;;;;;;5147655;27;43822;-70
2022/04/26 06:20:51;;;;;;;2.77;2.50;;;19.00;64.10;;;;;;5148251;27;44152;-70
2022/04/26 06:23:19;;;;;;;2.67;2.50;;;19.00;64.50;;;;;;5148406;27;43844;-70
2022/04/26 06:25:49;;;;;;;2.57;2.47;;;18.90;64.30;;;;;;5148787;27;44035;-70
2022/04/26 06:28:19;;;;;;;2.80;2.60;;;18.90;64.60;;;;;;5128636;27;45437;-70
2022/04/26 06:30:47;;;;;;;2.87;2.67;;;18.80;64.80;;;;;;5147988;27;44218;-70
2022/04/26 06:33:18;;;;;;;2.73;2.53;;;18.80;65.10;;;;;;5147666;27;44422;-70
2022/04/26 06:35:53;;;;;;;2.77;2.67;;;19.00;64.90;;;;;;5148674;27;43994;-70
2022/04/26 06:38:22;;;;;;;2.67;2.57;;;19.20;64.50;;;;;;5147339;27;44030;-70
2022/04/26 06:40:51;;;;;;;2.50;2.40;;;19.30;63.80;;;;;;5147596;27;43857;-70
2022/04/26 06:43:20;;;;;;;2.37;2.20;;;19.40;63.40;;;;;;5147100;27;43691;-69
2022/04/26 06:45:51;;;;;;;2.60;2.40;;;19.40;63.30;;;;;;5149491;27;44266;-70
2022/04/26 06:48:19;;;;;;;2.40;2.30;;;19.30;63.20;;;;;;5151235;27;43967;-70
2022/04/26 06:50:48;;;;;;;2.57;2.47;;;19.20;63.30;;;;;;5151312;27;43810;-70
2022/04/26 06:53:18;;;;;;;2.20;2.10;;;19.20;63.60;;;;;;5151160;27;43996;-69
2022/04/26 06:55:47;;;;;;;2.00;1.93;;;19.10;63.90;;;;;;5132845;27;44028;-71
2022/04/26 06:58:15;;;;;;;2.40;2.30;;;19.00;64.10;;;;;;5132357;27;46105;-70
2022/04/26 07:00:47;;;;;;;2.40;2.30;;;18.90;64.20;;;;;;5151329;27;44001;-69
2022/04/26 07:03:18;;;;;;;2.20;2.10;;;18.90;65.00;;;;;;5132344;27;43992;-71
2022/04/26 07:05:47;;;;;;;2.37;2.27;;;18.90;64.70;;;;;;5151985;27;44036;-70
2022/04/26 07:08:14;;;;;;;1.83;1.83;;;19.00;65.00;;;;;;5131469;27;46069;-71
2022/04/26 07:11:01;;;;;;;2.30;2.20;;;19.10;64.60;;;;;;5132058;27;44661;-70
2022/04/26 07:13:36;;;;;;;2.30;2.20;;;19.20;64.20;;;;;;5150810;27;43946;-71
2022/04/26 07:16:06;;;;;;;2.07;2.00;;;19.20;63.90;;;;;;5132756;27;44025;-70
2022/04/26 07:18:35;;;;;;;2.07;2.03;;;19.20;63.90;;;;;;5150773;27;45020;-71
2022/04/26 07:21:04;;;;;;;2.20;2.20;;;19.10;63.90;;;;;;5150837;27;43785;-70
2022/04/26 07:23:32;;;;;;;2.10;2.10;;;19.00;64.10;;;;;;5150650;27;43973;-70
2022/04/26 07:26:01;;;;;;;2.20;2.10;;;19.00;64.40;;;;;;5151304;27;43931;-70
2022/04/26 07:28:32;;;;;;;2.60;2.50;;;18.90;64.50;;;;;;5150241;27;44884;-69
2022/04/26 07:31:02;;;;;;;2.90;2.70;;;18.90;64.60;;;;;;5132016;27;44709;-70
2022/04/26 07:36:16;;;;;;;2.40;2.33;;;18.80;64.80;;;;;;5148671;27;43595;-70
2022/04/26 07:38:44;;;;;;;2.53;2.43;;;18.80;64.90;;;;;;5150551;27;43726;-70
2022/04/26 07:41:13;;;;;;;2.47;2.43;;;18.80;65.20;;;;;;5150512;27;43391;-69
2022/04/26 07:43:42;;;;;;;2.70;2.60;;;19.00;65.10;;;;;;5151159;27;43973;-70
2022/04/26 07:46:10;;;;;;;2.23;2.23;;;19.10;64.50;;;;;;5144341;27;43993;-70
2022/04/26 07:48:39;;;;;;;2.73;2.63;;;19.30;64.10;;;;;;5124890;27;45828;-70
2022/04/26 07:51:07;;;;;;;2.50;2.40;;;19.50;63.60;;;;;;5143703;27;43946;-70
2022/04/26 07:53:35;;;;;;;2.50;2.40;;;19.50;63.20;;;;;;5143860;27;43498;-69
2022/04/26 07:56:03;;;;;;;2.63;2.53;;;19.50;63.00;;;;;;5144417;27;44050;-70
2022/04/26 07:58:33;;;;;;;2.80;2.70;;;19.40;63.10;;;;;;5123750;27;45714;-70
2022/04/26 08:01:03;;;;;;;2.90;2.80;;;19.30;63.30;;;;;;5144286;27;43968;-71
2022/04/26 08:03:37;;;;;;;2.67;2.57;;;19.20;63.60;;;;;;5150214;27;43364;-70
2022/04/26 08:06:05;;;;;;;2.70;2.60;;;19.10;63.90;;;;;;5150827;27;43952;-70
2022/04/26 08:08:33;;;;;;;2.60;2.50;;;19.00;64.10;;;;;;5150323;27;44007;-71
2022/04/26 08:11:03;;;;;;;2.73;2.63;;;18.90;64.30;;;;;;5130959;27;44754;-70
2022/04/26 08:13:40;;;;;;;2.90;2.80;;;18.90;64.60;;;;;;5131170;27;43984;-70
2022/04/26 08:16:08;;;;;;;2.70;2.70;;;18.90;64.80;;;;;;5150242;27;43882;-71
2022/04/26 08:18:36;;;;;;;2.70;2.60;;;19.10;64.50;;;;;;5150049;27;44025;-70
2022/04/26 08:21:04;;;;;;;2.40;2.40;;;19.20;64.10;;;;;;5150052;27;44080;-70
2022/04/26 08:23:32;;;;;;;2.87;2.77;;;19.20;63.90;;;;;;5149629;27;43874;-70
2022/04/26 08:28:46;;;;;;;2.60;2.50;;;19.10;64.00;;;;;;5149605;27;43905;-70
2022/04/26 08:31:14;;;;;;;2.50;2.40;;;19.00;64.10;;;;;;5130433;27;45869;-69
2022/04/26 08:33:42;;;;;;;2.50;2.40;;;18.90;64.30;;;;;;5130769;27;43957;-70
2022/04/26 08:36:12;;;;;;;2.30;2.30;;;18.90;64.50;;;;;;5150243;27;43489;-70
2022/04/26 08:38:41;;;;;;;2.83;2.73;;;18.90;64.60;;;;;;5150179;27;43872;-70
2022/04/26 08:41:14;;;;;;;2.97;2.87;;;18.80;64.60;;;;;;5142960;27;44088;-70
2022/04/26 08:43:43;;;;;;;3.07;2.97;;;18.80;64.70;;;;;;5142857;27;43949;-70
2022/04/26 08:46:12;;;;;;;2.83;2.73;;;18.80;64.80;;;;;;5149799;27;44146;-70
2022/04/26 08:51:25;;;;;;;2.57;2.47;;;18.90;64.90;;;;;;5149371;27;43904;-71
2022/04/26 08:53:53;;;;;;;3.37;2.80;;;19.10;64.50;;;;;;5130737;27;43956;-70
2022/04/26 08:56:22;;;;;;;2.77;2.67;;;19.30;64.10;;;;;;5149512;27;43464;-70
2022/04/26 08:58:50;;;;;;;2.70;2.70;;;19.50;63.60;;;;;;5148883;27;44012;-71
2022/04/26 09:01:24;;;;;;;2.70;2.70;;;19.50;63.20;;;;;;5148624;27;43741;-70
2022/04/26 09:03:55;;;;;;;2.67;2.60;;;19.50;63.10;;;;;;5149459;27;44053;-71
2022/04/26 09:06:25;;;;;;;2.87;2.77;;;19.40;63.30;;;;;;5149607;27;43978;-71
2022/04/26 09:09:06;;;;;;;2.50;2.50;;;19.30;63.50;;;;;;5149159;27;43683;-70
2022/04/26 09:11:34;;;;;;;3.13;2.83;;;19.20;63.80;;;;;;5149170;27;43431;-69
2022/04/26 09:14:03;;;;;;;4.37;2.43;;;19.10;64.10;;;;;;5149115;27;43903;-70
2022/04/26 09:16:32;;;;;;;2.67;2.47;;;19.00;64.20;;;;;;5148977;27;44039;-70
2022/04/26 09:19:05;;;;;;;2.93;2.83;;;19.00;64.50;;;;;;5142122;27;44005;-70
2022/04/26 09:21:34;;;;;;;5.93;2.80;;;18.90;64.50;;;;;;5148955;27;43994;-70
2022/04/26 09:24:06;;;;;;;6.53;3.03;;;18.90;65.00;;;;;;5148957;27;43963;-70
2022/04/26 09:26:35;;;;;;;8.70;3.17;;;19.00;64.90;;;;;;5130288;27;43955;-70
2022/04/26 09:29:03;;;;;;;11.37;3.10;;;19.10;64.50;;;;;;5148801;27;44001;-70
2022/04/26 09:31:33;;;;;;;10.60;3.17;;;19.20;64.10;;;;;;5148699;27;43366;-70
2022/04/26 09:34:05;;;;;;;9.47;3.17;;;19.20;64.00;;;;;;5148677;27;43872;-70
2022/04/26 09:36:35;;;;;;;8.07;3.33;;;19.20;63.90;;;;;;5149514;27;44042;-70
2022/04/26 09:39:04;;;;;;;4.87;2.80;;;19.10;64.10;;;;;;5130184;27;43974;-70
2022/04/26 09:41:33;;;;;;;6.50;3.03;;;19.00;64.10;;;;;;5148734;27;44143;-70
2022/04/26 09:44:04;;;;;;;5.63;2.97;;;19.00;64.40;;;;;;5148884;27;44123;-71
2022/04/26 09:46:49;;;;;;;4.80;3.47;;;18.90;64.50;;;;;;5148965;27;43962;-71
2022/04/26 09:49:18;;;;;;;4.73;2.97;;;18.90;64.70;;;;;;5148396;27;43721;-70
2022/04/26 09:51:47;;;;;;;2.60;2.40;;;18.80;64.80;;;;;;5148203;27;43827;-70
2022/04/26 09:54:15;;;;;;;13.13;3.20;;;18.80;64.90;;;;;;5148294;27;44022;-70
2022/04/26 09:56:45;;;;;;;10.57;3.37;;;18.80;65.10;;;;;;5130759;27;43874;-70
2022/04/26 09:59:14;;;;;;;10.27;3.30;;;18.90;65.20;;;;;;5148239;27;43936;-71
2022/04/26 10:01:43;;;;;;;4.73;2.80;;;19.00;64.80;;;;;;5148441;27;43813;-71
2022/04/26 10:04:15;;;;;;;4.97;2.50;;;19.20;64.20;;;;;;5129901;27;43978;-70
2022/04/26 10:06:44;;;;;;;5.90;2.97;;;19.40;63.70;;;;;;5120508;27;44252;-70
2022/04/26 10:09:12;;;;;;;8.00;2.90;;;19.50;63.20;;;;;;5148598;27;44126;-70
2022/04/26 10:11:40;;;;;;;14.23;3.20;;;19.50;63.00;;;;;;5148656;27;43899;-69
2022/04/26 10:14:09;;;;;;;8.07;3.10;;;19.40;63.00;;;;;;5148266;27;44151;-69
2022/04/26 10:16:38;;;;;;;11.07;3.10;;;19.30;63.10;;;;;;5148351;27;43494;-70
2022/04/26 10:19:07;;;;;;;9.23;3.00;;;19.20;63.40;;;;;;5148058;27;44107;-70
2022/04/26 10:21:49;;;;;;;12.37;3.30;;;19.20;63.70;;;;;;5150541;27;43566;-70
2022/04/26 10:24:19;;;;;;;11.10;3.20;;;19.10;64.00;;;;;;5151783;27;43929;-69
2022/04/26 10:26:47;;;;;;;9.67;3.20;;;19.00;64.10;;;;;;5152435;27;43965;-70
2022/04/26 10:29:22;;;;;;;9.60;2.63;;;18.90;64.20;;;;;;5151628;27;44224;-70
2022/04/26 10:31:57;;;;;;;7.23;3.00;;;18.90;64.60;;;;;;5132988;27;44431;-70
2022/04/26 10:34:31;;;;;;;7.93;3.00;;;19.00;64.80;;;;;;5151993;27;43950;-70
2022/04/26 10:37:01;;;;;;;9.23;3.27;;;19.10;64.60;;;;;;5152314;27;43916;-70
2022/04/26 10:39:36;;;;;;;6.70;2.77;;;19.30;64.10;;;;;;5151455;27;44003;-70
2022/04/26 10:42:27;;;;;;;7.17;2.90;;;19.40;63.60;;;;;;5127139;27;44827;-69
2022/04/26 10:44:59;;;;;;;5.90;3.00;;;19.50;63.30;;;;;;5152038;27;44334;-69
2022/04/26 10:47:28;;;;;;;7.20;2.70;;;19.40;63.20;;;;;;5151856;27;44026;-70
2022/04/26 10:49:58;;;;;;;5.33;2.57;;;19.30;63.30;;;;;;5132135;27;45999;-70
2022/04/26 10:52:49;;;;;;;2.80;2.60;;;19.20;63.60;;;;;;5151312;27;44069;-70
2022/04/26 10:55:18;;;;;;;2.57;2.37;;;19.10;63.80;;;;;;5151238;27;44328;-70
2022/04/26 10:57:48;;;;;;;3.77;2.30;;;19.00;64.00;;;;;;5151777;27;43895;-70
2022/04/26 11:00:18;;;;;;;2.77;2.30;;;19.00;64.30;;;;;;5151018;27;43912;-70
2022/04/26 11:02:47;;;;;;;2.77;2.57;;;19.00;64.40;;;;;;5132391;27;46088;-70
2022/04/26 11:05:17;;;;;;;4.93;2.60;;;18.90;64.60;;;;;;5150937;27;44049;-69
2022/04/26 11:07:51;;;;;;;3.30;2.70;;;18.90;64.90;;;;;;5132485;27;44041;-70
2022/04/26 11:11:00;;;;;;;3.00;2.30;;;19.00;64.70;;;;;;5150301;27;43962;-71
2022/04/26 11:13:35;;;;;;;2.67;2.43;;;19.20;64.30;;;;;;5150061;27;44180;-70
2022/04/26 11:16:12;;;;;;;2.30;2.20;;;19.20;63.90;;;;;;5150904;27;43831;-71
2022/04/26 11:18:45;;;;;;;2.50;2.30;;;19.10;63.90;;;;;;5151305;27;43835;-70
2022/04/26 11:21:17;;;;;;;2.47;2.30;;;19.10;64.10;;;;;;5150171;27;43807;-70
2022/04/26 11:29:34;;;;;;;2.60;2.40;;;18.90;64.50;;;;;;5151195;27;43964;-70
2022/04/26 11:32:04;;;;;;;2.47;2.37;;;18.90;64.70;;;;;;5149186;27;43847;-70
2022/04/26 11:34:46;;;;;;;2.60;2.50;;;18.80;64.80;;;;;;5150115;27;43757;-70
2022/04/26 11:37:14;;;;;;;2.67;2.20;;;18.80;64.80;;;;;;5151078;27;43815;-70
2022/04/26 11:39:44;;;;;;;2.53;2.43;;;18.80;65.00;;;;;;5151603;27;43970;-71
2022/04/26 11:42:12;;;;;;;2.57;2.47;;;18.80;65.10;;;;;;5150478;27;44001;-71
2022/04/26 11:44:56;;;;;;;2.73;2.53;;;18.90;64.90;;;;;;5132067;27;44509;-71
2022/04/26 11:47:40;;;;;;;2.70;2.50;;;19.10;64.50;;;;;;5150294;27;43933;-70
2022/04/26 11:50:12;;;;;;;2.47;2.30;;;19.30;63.90;;;;;;5151253;27;43833;-70
2022/04/26 11:52:41;;;;;;;2.40;2.40;;;19.40;63.30;;;;;;5143973;27;43855;-70
2022/04/26 11:55:25;;;;;;;2.60;2.50;;;19.40;63.00;;;;;;5143851;27;43952;-69
2022/04/26 11:58:13;;;;;;;2.30;2.30;;;19.30;62.80;;;;;;5146077;27;44021;-71
2022/04/26 12:01:02;;;;;;;2.80;2.60;;;19.30;63.10;;;;;;5150614;27;44071;-71
2022/04/26 12:03:44;;;;;;;2.97;2.87;;;19.20;63.40;;;;;;5150144;27;44842;-70
2022/04/26 12:06:20;;;;;;;2.30;2.30;;;19.10;63.90;;;;;;5149463;27;43792;-70
2022/04/26 12:09:08;;;;;;;2.43;2.43;;;19.00;64.10;;;;;;5131313;27;43418;-69
2022/04/26 12:12:10;;;;;;;2.33;2.33;;;18.90;64.20;;;;;;5146288;27;44036;-70
2022/04/26 12:17:47;;;;;;;3.17;2.40;;;18.90;64.70;;;;;;5144787;27;43875;-71
2022/04/26 12:20:20;;;;;;;2.50;2.50;;;19.10;64.50;;;;;;5130360;27;44068;-70
2022/04/26 12:22:55;;;;;;;2.70;2.60;;;19.30;64.00;;;;;;5149970;27;44131;-70
2022/04/26 12:25:29;;;;;;;2.63;2.43;;;19.30;63.50;;;;;;5149133;27;44002;-70
2022/04/26 12:28:09;;;;;;;2.80;2.80;;;19.30;63.20;;;;;;5149245;27;44120;-70
2022/04/26 12:30:39;;;;;;;2.50;2.40;;;19.30;63.50;;;;;;5131175;27;44043;-69
2022/04/26 12:33:25;;;;;;;2.50;2.50;;;19.20;64.40;;;;;;5149547;27;44050;-70
2022/04/26 12:36:01;;;;;;;2.70;2.60;;;19.10;63.80;;;;;;5149945;27;44020;-70
2022/04/26 12:38:29;;;;;;;2.70;2.60;;;19.00;64.00;;;;;;5149649;27;43937;-70
2022/04/26 12:41:11;;;;;;;2.50;2.50;;;19.00;64.10;;;;;;5149507;27;44043;-70
2022/04/26 12:43:44;;;;;;;2.37;2.27;;;18.90;64.40;;;;;;5150373;27;43457;-69
2022/04/26 12:46:12;;;;;;;2.70;2.60;;;18.90;64.50;;;;;;5149706;27;43998;-70
2022/04/26 12:51:41;;;;;;;7.70;3.50;;;18.90;64.90;;;;;;5149684;27;44186;-70
2022/04/26 12:54:11;;;;;;;14.70;3.77;;;19.00;64.70;;;;;;5149672;27;43861;-70
2022/04/26 12:56:40;;;;;;;10.40;3.90;;;19.20;64.30;;;;;;5149495;27;43860;-70
2022/04/26 12:59:17;;;;;;;20.97;4.27;;;19.30;63.70;;;;;;5148999;27;43987;-70
2022/04/26 13:01:45;;;;;;;21.40;4.53;;;19.50;63.30;;;;;;5149303;27;43936;-70
2022/04/26 13:04:15;;;;;;;26.53;5.17;;;19.50;62.90;;;;;;5148994;27;44053;-71
2022/04/26 13:06:58;;;;;;;13.07;4.30;;;19.40;62.90;;;;;;5148704;27;44546;-70
2022/04/26 13:09:48;;;;;;;8.80;4.00;;;19.30;63.00;;;;;;5145542;27;43363;-70
2022/04/26 13:12:25;;;;;;;12.70;4.47;;;19.20;63.40;;;;;;5148420;27;44021;-70
2022/04/26 13:14:57;;;;;;;16.60;4.93;;;19.10;63.60;;;;;;5130162;27;44077;-70
2022/04/26 13:17:32;;;;;;;17.17;4.73;;;19.10;63.90;;;;;;5148101;27;43945;-70
2022/04/26 13:20:04;;;;;;;17.13;4.60;;;19.00;63.90;;;;;;5142567;27;43416;-70
2022/04/26 13:22:35;;;;;;;25.57;6.20;;;18.90;63.90;;;;;;5148705;27;43943;-71
2022/04/26 13:25:12;;;;;;;29.97;6.23;;;18.90;64.00;;;;;;5129927;27;44098;-70
2022/04/26 13:27:47;;;;;;;27.53;6.67;;;18.90;63.80;;;;;;5148709;27;43970;-70
2022/04/26 13:30:20;;;;;;;20.40;5.83;;;19.10;63.60;;;;;;5128662;27;44579;-70
2022/04/26 13:33:00;;;;;;;19.57;5.47;;;19.30;63.30;;;;;;5148434;27;44049;-70
2022/04/26 13:35:44;;;;;;;12.97;4.80;;;19.40;62.90;;;;;;5141898;27;44024;-71
2022/04/26 13:38:24;;;;;;;21.37;5.20;;;19.40;62.60;;;;;;5143901;27;44109;-71
2022/04/26 13:41:00;;;;;;;11.73;4.50;;;19.30;62.60;;;;;;5148424;27;43847;-70
2022/04/26 13:43:33;;;;;;;9.37;4.70;;;19.20;62.80;;;;;;5148133;27;43996;-70
2022/04/26 13:46:24;;;;;;;10.37;4.37;;;19.10;63.20;;;;;;5148344;27;43322;-71
2022/04/26 13:49:02;;;;;;;26.50;6.47;;;19.00;63.40;;;;;;5143690;27;43824;-71
2022/04/26 13:51:38;;;;;;;64.43;10.23;;;19.00;63.60;;;;;;5148032;27;43971;-70
2022/04/26 13:54:14;;;;;;;96.40;14.10;;;18.90;63.40;;;;;;5141006;27;43485;-70
2022/04/26 13:56:49;;;;;;;192.93;19.50;;;18.90;63.40;;;;;;5141936;27;43532;-71
2022/04/26 13:59:24;;;;;;;180.13;20.27;;;18.90;63.30;;;;;;5128590;27;46888;-69
2022/04/26 14:02:13;;;;;;;207.13;21.93;;;18.90;63.30;;;;;;5148056;27;44332;-71
2022/04/26 14:04:42;;;;;;;179.17;21.27;;;19.10;62.80;;;;;;5147946;27;44072;-70
2022/04/26 14:07:10;;;;;;;185.43;22.43;;;19.20;62.10;;;;;;5129806;27;43446;-69
2022/04/26 14:09:38;;;;;;;168.63;21.83;;;19.30;61.70;;;;;;5148474;27;43869;-71
2022/04/26 14:12:08;;;;;;;138.63;20.73;;;19.30;61.50;;;;;;5148188;27;44074;-70
2022/04/26 14:22:54;;;;;;;88.73;16.90;;;19.00;62.30;;;;;;5148396;27;44021;-71
2022/04/26 14:25:23;;;;;;;106.30;18.80;;;18.90;62.30;;;;;;5147764;27;44024;-70
2022/04/26 14:27:52;;;;;;;105.60;18.27;;;18.90;62.30;;;;;;5148056;27;43993;-70
2022/04/26 14:30:20;;;;;;;90.03;17.40;;;18.90;62.40;;;;;;5148214;27;44046;-70
2022/04/26 14:33:09;;;;;;;104.73;17.97;;;18.90;62.50;;;;;;5128865;27;44100;-71
2022/04/26 14:35:37;;;;;;;119.93;18.23;;;18.80;62.40;;;;;;5148011;27;43975;-71
2022/04/26 14:38:06;;;;;;;92.20;16.23;;;19.00;62.60;;;;;;5129806;27;44183;-71
2022/04/26 14:40:34;;;;;;;89.23;17.00;;;19.10;62.30;;;;;;5147742;27;44299;-70
2022/04/26 14:43:06;;;;;;;78.70;15.57;;;19.10;62.00;;;;;;5148005;27;43958;-71
2022/04/26 14:45:42;;;;;;;44.10;11.90;;;19.10;61.80;;;;;;5147742;27;43993;-71
2022/04/26 14:48:12;;;;;;;57.17;12.87;;;19.10;61.80;;;;;;5141055;27;43985;-71
2022/04/26 14:50:40;;;;;;;46.07;12.10;;;19.10;62.10;;;;;;5122421;27;45732;-70
2022/04/26 14:53:08;;;;;;;50.77;12.03;;;19.00;62.20;;;;;;5141430;27;43929;-69
2022/04/26 14:55:57;;;;;;;55.90;11.67;;;18.90;62.50;;;;;;5144199;27;43964;-71
2022/04/26 14:58:26;;;;;;;45.43;11.67;;;18.90;62.70;;;;;;5128879;27;44029;-71
2022/04/26 15:00:54;;;;;;;33.23;10.93;;;18.90;62.70;;;;;;5147737;27;44025;-70
2022/04/26 15:03:24;;;;;;;45.73;11.00;;;18.80;62.80;;;;;;5147904;27;44059;-71
2022/04/26 15:05:52;;;;;;;49.60;11.03;;;18.80;62.90;;;;;;5149629;27;43321;-69
2022/04/26 15:11:05;;;;;;;39.47;11.13;;;18.80;63.20;;;;;;5151188;27;44906;-70
2022/04/26 15:19:06;;;;;;;33.97;9.10;;;19.40;62.10;;;;;;5151689;27;43878;-71
2022/04/26 15:21:34;;;;;;;32.37;9.30;;;19.60;61.50;;;;;;5132086;27;46196;-71
2022/04/26 15:24:04;;;;;;;32.40;9.03;;;19.60;61.20;;;;;;5150994;27;43975;-71
2022/04/26 15:26:32;;;;;;;29.27;8.30;;;19.60;61.20;;;;;;5150623;27;43914;-70
2022/04/26 15:29:00;;;;;;;24.77;9.30;;;19.50;61.30;;;;;;5151619;27;43472;-71
2022/04/26 15:31:34;;;;;;;22.77;7.40;;;19.40;61.60;;;;;;5150615;27;44390;-70
2022/04/26 15:34:03;;;;;;;29.77;8.37;;;19.30;61.90;;;;;;5150582;27;43857;-71
2022/04/26 15:36:33;;;;;;;19.37;8.27;;;19.20;62.20;;;;;;5150675;27;43498;-71
2022/04/26 15:39:01;;;;;;;20.63;7.80;;;19.10;62.50;;;;;;5151113;27;43865;-71
2022/04/26 15:41:32;;;;;;;19.27;8.20;;;19.10;62.70;;;;;;5150095;27;43895;-71
2022/04/26 15:44:01;;;;;;;25.77;7.67;;;19.00;63.20;;;;;;5150746;27;44075;-71
2022/04/26 15:46:45;;;;;;;22.63;7.50;;;19.10;63.30;;;;;;5150623;27;43946;-70
2022/04/26 15:49:14;;;;;;;24.47;8.07;;;19.20;63.00;;;;;;5150948;27;43386;-70
2022/04/26 15:51:44;;;;;;;18.60;7.80;;;19.30;62.60;;;;;;5150447;27;43957;-70
2022/04/26 15:54:12;;;;;;;17.73;7.47;;;19.30;62.40;;;;;;5131711;27;44851;-69
2022/04/26 15:56:41;;;;;;;14.53;6.73;;;19.20;62.40;;;;;;5150699;27;43940;-70
2022/04/26 15:59:10;;;;;;;16.40;7.07;;;19.10;62.60;;;;;;5131990;27;43920;-70
2022/04/26 16:01:39;;;;;;;15.87;7.27;;;19.10;63.70;;;;;;5150116;27;43952;-70
2022/04/26 16:04:10;;;;;;;17.93;7.13;;;19.00;63.20;;;;;;5131279;27;45590;-70
2022/04/26 16:06:39;;;;;;;17.87;6.57;;;19.00;63.50;;;;;;5150483;27;43821;-70
2022/04/26 16:22:53;;;;;;;12.27;6.33;;;19.10;64.80;;;;;;5130984;27;45719;-71
2022/04/26 16:25:23;;;;;;;10.00;5.67;;;19.30;63.60;;;;;;5149067;27;43938;-70
2022/04/26 16:27:51;;;;;;;10.93;5.97;;;19.50;63.10;;;;;;5131288;27;43924;-71
2022/04/26 16:30:27;;;;;;;10.70;5.17;;;19.60;62.70;;;;;;5149947;27;43906;-70
2022/04/26 16:32:55;;;;;;;8.07;5.53;;;19.50;62.50;;;;;;5149616;27;43698;-70
2022/04/26 16:35:24;;;;;;;9.30;5.10;;;19.50;62.60;;;;;;5149034;27;44224;-71
2022/04/26 16:37:55;;;;;;;9.47;4.93;;;19.30;62.70;;;;;;5150015;27;43927;-69
2022/04/26 16:40:24;;;;;;;8.77;5.13;;;19.20;63.00;;;;;;5150333;27;44414;-70
2022/04/26 16:42:53;;;;;;;10.10;5.60;;;19.20;63.40;;;;;;5149709;27;43900;-70
2022/04/26 16:45:20;;;;;;;8.73;5.43;;;19.10;63.70;;;;;;5149330;27;43918;-70
2022/04/26 16:47:51;;;;;;;6.73;5.00;;;19.00;63.80;;;;;;5149604;27;43962;-69
2022/04/26 16:50:19;;;;;;;6.90;4.87;;;18.90;64.00;;;;;;5149954;27;43999;-70
2022/04/26 16:52:49;;;;;;;11.03;4.80;;;19.00;64.80;;;;;;5149272;27;44055;-70
2022/04/26 16:55:17;;;;;;;8.47;5.20;;;19.10;64.50;;;;;;5149315;27;43942;-70
2022/04/26 16:57:46;;;;;;;6.80;4.87;;;19.20;64.10;;;;;;5149652;27;43348;-71
2022/04/26 17:00:15;;;;;;;5.20;4.53;;;19.30;63.70;;;;;;5149893;27;44021;-71
2022/04/26 17:02:43;;;;;;;7.40;4.93;;;19.20;63.40;;;;;;5149500;27;44006;-71
2022/04/26 17:05:12;;;;;;;4.87;4.33;;;19.20;63.50;;;;;;5149178;27;43993;-70
2022/04/26 17:07:46;;;;;;;4.33;3.97;;;19.10;63.70;;;;;;5130899;27;43952;-70
2022/04/26 17:10:14;;;;;;;7.40;4.33;;;19.00;63.90;;;;;;5149595;27;43985;-70
2022/04/26 17:12:42;;;;;;;4.37;4.00;;;18.90;64.00;;;;;;5149599;27;43865;-70
2022/04/26 17:15:11;;;;;;;4.93;4.40;;;18.90;64.30;;;;;;5130090;27;43931;-70
2022/04/26 17:17:41;;;;;;;5.13;4.17;;;18.90;64.50;;;;;;5149404;27;43937;-70
2022/04/26 17:20:10;;;;;;;5.60;4.00;;;18.80;64.50;;;;;;5149313;27;43974;-70
2022/04/26 17:22:41;;;;;;;4.60;4.20;;;18.80;64.60;;;;;;5130457;27;45779;-70
2022/04/26 17:25:15;;;;;;;6.03;4.10;;;18.80;65.00;;;;;;5142223;27;43909;-71
2022/04/26 17:28:06;;;;;;;5.77;4.13;;;18.90;65.00;;;;;;5146307;27;44067;-69
2022/04/26 17:30:36;;;;;;;4.53;4.00;;;19.10;64.60;;;;;;5148209;27;43986;-70
2022/04/26 17:33:04;;;;;;;4.83;3.77;;;19.30;64.10;;;;;;5148948;27;44010;-70